createdAt,value
2023-04-21T06:55:08.578Z,29.88
2023-04-21T06:57:55.820Z,32.25
2023-04-21T07:00:43.330Z,30.67
2023-04-21T07:03:31.118Z,28.45
2023-04-21T07:06:18.371Z,27.45
2023-04-21T07:09:05.919Z,26.90
2023-04-21T07:11:54.558Z,26.23
2023-04-21T07:14:42.529Z,23.35
2023-04-21T07:17:30.495Z,24.08
2023-04-21T07:20:18.790Z,23.07
2023-04-21T07:23:07.244Z,22.20
2023-04-21T07:25:55.173Z,21.17
2023-04-21T07:28:44.349Z,22.10
2023-04-21T07:31:31.839Z,21.55
2023-04-21T07:34:19.988Z,22.20
2023-04-21T07:37:07.548Z,21.27
2023-04-21T07:39:55.116Z,20.83
2023-04-21T07:42:43.325Z,20.08
2023-04-21T07:45:32.530Z,18.42
2023-04-21T07:48:20.679Z,19.60
2023-04-21T07:51:07.960Z,18.80
2023-04-21T07:53:56.157Z,18.48
2023-04-21T07:56:43.642Z,18.48
2023-04-21T07:59:31.682Z,18.75
2023-04-21T08:02:20.230Z,17.92
2023-04-21T08:05:08.124Z,17.73
2023-04-21T08:07:57.150Z,18.27
2023-04-21T08:10:44.568Z,17.20
2023-04-21T08:13:31.779Z,17.52
2023-04-21T08:16:19.445Z,17.67
2023-04-21T08:19:09.079Z,18.48
2023-04-21T08:21:57.127Z,17.60
2023-04-21T08:24:44.366Z,17.10
2023-04-21T08:27:32.184Z,17.17
2023-04-21T08:30:19.781Z,17.60
2023-04-21T08:33:08.627Z,16.57
2023-04-21T08:36:05.557Z,17.00
2023-04-21T08:38:56.876Z,15.30
2023-04-21T08:41:44.267Z,16.37
2023-04-21T08:44:32.403Z,15.95
2023-04-21T08:47:21.270Z,16.57
2023-04-21T08:50:13.106Z,15.18
2023-04-21T08:53:01.592Z,15.35
2023-04-21T08:56:09.514Z,15.00
2023-04-21T08:58:58.318Z,14.85
2023-04-21T09:02:11.355Z,14.07
2023-04-21T09:05:00.233Z,13.60
2023-04-21T09:07:48.039Z,13.68
2023-04-21T09:10:44.582Z,14.35
2023-04-21T09:13:35.106Z,14.82
2023-04-21T09:16:23.734Z,14.25
2023-04-21T09:19:16.077Z,14.73
2023-04-21T09:22:03.811Z,14.30
2023-04-21T09:24:58.612Z,13.77
2023-04-21T09:27:47.770Z,13.88
2023-04-21T09:30:37.291Z,13.93
2023-04-21T09:33:29.549Z,12.93
2023-04-21T09:36:21.622Z,13.57
2023-04-21T09:41:59.435Z,13.50
2023-04-21T09:44:56.206Z,13.73
2023-04-21T09:47:49.393Z,14.60
2023-04-21T09:53:35.781Z,13.90
2023-04-21T09:56:26.086Z,13.75
2023-04-21T09:59:15.455Z,11.30
2023-04-21T10:02:07.279Z,13.23
2023-04-21T10:04:55.611Z,12.33
2023-04-21T10:07:43.360Z,12.47
2023-04-21T10:10:31.901Z,11.52
2023-04-21T10:13:18.961Z,12.97
2023-04-21T10:16:07.980Z,14.57
2023-04-21T10:18:56.867Z,14.52
2023-04-21T10:21:45.139Z,14.20
2023-04-21T10:24:33.428Z,13.95
2023-04-21T10:27:33.802Z,12.73
2023-04-21T10:30:22.593Z,12.95
2023-04-21T10:33:11.039Z,12.70
2023-04-21T10:36:04.788Z,13.13
2023-04-21T10:38:57.523Z,12.02
2023-04-21T10:41:46.400Z,12.25
2023-04-21T10:44:34.217Z,14.02
2023-04-21T10:47:27.535Z,14.13
2023-04-21T10:50:16.465Z,11.70
2023-04-21T10:53:12.383Z,13.73
2023-04-21T10:55:59.790Z,14.80
2023-04-21T10:58:48.124Z,16.37
2023-04-21T11:01:35.859Z,15.40
2023-04-21T11:04:24.161Z,14.40
2023-04-21T11:07:13.103Z,13.23
2023-04-21T11:10:04.210Z,13.23
2023-04-21T11:12:51.890Z,12.93
2023-04-21T11:15:39.755Z,11.10
2023-04-21T11:18:41.543Z,11.52
2023-04-21T11:21:31.722Z,10.77
2023-04-21T11:24:19.178Z,10.10
2023-04-21T11:27:12.505Z,10.73
2023-04-21T11:30:00.545Z,11.05
2023-04-21T11:32:48.405Z,12.55
2023-04-21T11:35:41.839Z,12.70
2023-04-21T11:38:29.593Z,12.23
2023-04-21T11:41:22.958Z,12.00
2023-04-21T11:44:12.659Z,11.63
2023-04-21T11:47:00.091Z,11.80
2023-04-21T11:49:49.193Z,11.93
2023-04-21T11:52:38.398Z,13.18
2023-04-21T11:55:26.290Z,13.63
2023-04-21T11:58:16.244Z,12.88
2023-04-21T12:01:10.695Z,12.00
2023-04-21T12:03:58.636Z,10.02
2023-04-21T12:06:47.202Z,11.35
2023-04-21T12:09:37.946Z,11.65
2023-04-21T12:12:25.336Z,13.30
2023-04-21T12:15:13.985Z,12.60
2023-04-21T12:18:02.904Z,10.82
2023-04-21T12:20:51.833Z,11.73
2023-04-21T12:23:39.341Z,10.25
2023-04-21T12:26:27.074Z,10.15
2023-04-21T12:29:15.125Z,11.70
2023-04-21T12:32:03.070Z,11.20
2023-04-21T12:34:52.513Z,11.23
2023-04-21T12:37:39.855Z,11.10
2023-04-21T12:40:27.424Z,10.15
2023-04-21T12:43:14.297Z,9.83
2023-04-21T12:46:01.553Z,11.30
2023-04-21T12:48:49.462Z,10.30
2023-04-21T12:51:38.959Z,9.95
2023-04-21T12:54:26.596Z,10.30
2023-04-21T12:57:15.622Z,8.88
2023-04-21T13:00:03.144Z,9.48
